KLBB/LBB METAR and TAF weather

Enter ICAO airport designator
Station Type Date Time Source
KLBB METAR 2019/02/21 10:53 UTC NOAA

KLBB 211053Z 15010KT 10SM BKN100 BKN180 OVC250 06/M05 A2981 RMK AO2 SLP078 T00611050 $


Station Type Date Time Source
KLBB Decoded METAR 2019/02/21 10:53 UTC NOAA

LUBBOCK INTERNATIONAL AIRPORT , TX, United States (KLBB) 33-40N 101-49W 992M
Feb 21, 2019 - 05:53 AM EST / 2019.02.21 1053 UTC
Wind: from the SSE (150 degrees) at 12 MPH (10 KT):0
Visibility: 10 mile(s):0
Sky conditions: overcast
Temperature: 43.0 F (6.1 C)
Dew Point: 23.0 F (-5.0 C)
Relative Humidity: 44%
Pressure (altimeter): 29.81 in. Hg (1009 hPa)
ob: KLBB 211053Z 15010KT 10SM BKN100 BKN180 OVC250 06/M05 A2981 RMK AO2 SLP078 T00611050
cycle: 11

Station Type Date Time Source
KLBB TAF 2019/02/21 12:22 UTC NOAA

TAF KLBB 211120Z 2112/2212 17009KT P6SM OVC250
FM211800 16016KT P6SM BKN250
FM220800 14008KT P6SM BKN015


Example: see airport list